Main page
METAR-TAF:

METAR-TAF

Airports :

Santa Ana del Yacuma Airport

Santa Ana del Yacuma, Bolivia

latitude: 13-46S, longitude: 065-26W, elevation: 144 m

Current weather observation

The report was made 1 hour and 11 minutes ago, at 19:00 UTC
Calm wind
Temperature 29°C
Humidity 31%
Pressure 1019 hPa
Visibility: 8000 m

METAR: SLSA 161900Z 00000KT 8000 NSC 29/10 Q1019

Time: 16:11 (20:11 UTC)


TAF: missing

Weather observations and forecasts of more than 4000 airports (METAR and TAF reports).

The available stations are represented by yellow and red dots on the map.

Hover mouse over dot to see the name of the station.

Then click to see weather observations and forecasts.

To change the map : click on the green buttons with a black cross to zoom in, on the green button with a dash to zoom out, or on the green arrows for adjacent maps.


METAR-TAF: